createdAt,value
2019-03-25T00:01:58.824Z,10.50
2019-03-25T00:04:27.427Z,12.53
2019-03-25T00:06:56.062Z,9.98
2019-03-25T00:09:24.804Z,15.60
2019-03-25T00:11:53.479Z,12.53
2019-03-25T00:14:21.983Z,14.73
2019-03-25T00:16:50.654Z,14.20
2019-03-25T00:19:19.387Z,10.30
2019-03-25T00:21:48.029Z,10.78
2019-03-25T00:24:16.593Z,14.15
2019-03-25T00:26:45.281Z,13.43
2019-03-25T00:29:13.987Z,12.33
2019-03-25T00:31:42.491Z,10.98
2019-03-25T00:34:11.097Z,12.05
2019-03-25T00:36:39.831Z,11.20
2019-03-25T00:39:08.617Z,10.28
2019-03-25T00:41:37.440Z,11.10
2019-03-25T00:44:06.080Z,11.25
2019-03-25T00:46:34.708Z,11.80
2019-03-25T00:49:03.382Z,12.75
2019-03-25T00:51:32.020Z,10.60
2019-03-25T00:54:00.659Z,11.63
2019-03-25T00:56:29.324Z,12.53
2019-03-25T00:58:57.958Z,14.58
2019-03-25T01:01:26.595Z,14.23
2019-03-25T01:03:55.278Z,10.53
2019-03-25T01:06:23.917Z,12.35
2019-03-25T01:08:52.548Z,13.90
2019-03-25T01:11:21.222Z,16.45
2019-03-25T01:13:49.863Z,22.85
2019-03-25T01:16:18.538Z,20.50
2019-03-25T01:18:47.218Z,21.10
2019-03-25T01:21:15.847Z,22.80
2019-03-25T01:23:44.480Z,19.98
2019-03-25T01:26:13.112Z,18.90
2019-03-25T01:28:41.747Z,19.00
2019-03-25T01:31:10.646Z,17.32
2019-03-25T01:33:39.274Z,16.65
2019-03-25T01:36:07.792Z,16.40
2019-03-25T01:38:37.306Z,16.37
2019-03-25T01:41:05.941Z,17.20
2019-03-25T01:43:34.505Z,16.25
2019-03-25T01:46:03.229Z,16.57
2019-03-25T01:48:31.788Z,15.30
2019-03-25T01:51:00.424Z,16.33
2019-03-25T01:53:29.105Z,17.35
2019-03-25T01:55:57.599Z,17.93
2019-03-25T01:58:26.453Z,16.80
2019-03-25T02:00:55.101Z,17.75
2019-03-25T02:03:23.721Z,17.92
2019-03-25T02:05:52.404Z,18.27
2019-03-25T02:08:21.304Z,17.82
2019-03-25T02:10:49.861Z,18.63
2019-03-25T02:13:18.499Z,17.63
2019-03-25T02:15:47.130Z,18.00
2019-03-25T02:18:15.719Z,18.33
2019-03-25T02:20:44.462Z,17.93
2019-03-25T02:23:13.147Z,18.37
2019-03-25T02:25:41.743Z,19.87
2019-03-25T02:28:10.358Z,18.80
2019-03-25T02:30:38.962Z,18.50
2019-03-25T02:33:07.589Z,20.27
2019-03-25T02:35:36.266Z,18.85
2019-03-25T02:38:04.898Z,19.10
2019-03-25T02:40:33.541Z,19.37
2019-03-25T02:43:02.212Z,19.40
2019-03-25T02:45:30.770Z,19.82
2019-03-25T02:47:59.445Z,18.95
2019-03-25T02:50:28.188Z,18.53
2019-03-25T02:52:56.745Z,17.53
2019-03-25T02:55:40.166Z,17.48
2019-03-25T02:57:55.565Z,16.37
2019-03-25T03:00:34.998Z,16.93
2019-03-25T03:03:04.202Z,17.02
2019-03-25T03:05:32.694Z,14.65
2019-03-25T03:08:01.254Z,14.03
2019-03-25T03:10:30.043Z,12.80
2019-03-25T03:12:58.615Z,13.50
2019-03-25T03:15:27.245Z,12.57
2019-03-25T03:17:56.189Z,13.53
2019-03-25T03:20:24.757Z,15.00
2019-03-25T03:22:53.354Z,15.93
2019-03-25T03:25:21.992Z,16.53
2019-03-25T03:27:50.555Z,13.65
2019-03-25T03:30:19.346Z,13.67
2019-03-25T03:32:47.995Z,14.73
2019-03-25T03:35:16.612Z,15.43
2019-03-25T03:37:45.213Z,14.78
2019-03-25T03:40:14.045Z,14.70
2019-03-25T03:42:42.804Z,14.77
2019-03-25T03:45:11.755Z,14.97
2019-03-25T03:47:40.320Z,15.03
2019-03-25T03:50:09.258Z,15.47
2019-03-25T03:52:38.364Z,15.47
2019-03-25T03:55:07.286Z,15.10
2019-03-25T03:57:36.326Z,15.43
2019-03-25T04:00:07.543Z,15.83
2019-03-25T04:02:36.212Z,15.55
2019-03-25T04:05:04.949Z,15.55
2019-03-25T04:07:33.515Z,16.10
2019-03-25T04:10:02.169Z,14.30
2019-03-25T04:12:30.844Z,14.68
2019-03-25T04:14:59.475Z,13.85
2019-03-25T04:17:28.047Z,14.23
2019-03-25T04:19:56.927Z,13.50
2019-03-25T04:22:25.493Z,14.33
2019-03-25T04:24:53.998Z,15.50
2019-03-25T04:27:23.465Z,14.55
2019-03-25T04:29:52.114Z,15.57
2019-03-25T04:32:20.678Z,14.37
2019-03-25T04:34:49.448Z,13.93
2019-03-25T04:37:18.020Z,15.03
2019-03-25T04:39:46.700Z,15.55
2019-03-25T04:42:15.302Z,15.40
2019-03-25T04:44:43.943Z,15.08
2019-03-25T04:47:12.506Z,16.48
2019-03-25T04:49:41.362Z,17.55
2019-03-25T04:52:10.017Z,16.93
2019-03-25T04:54:38.643Z,16.32
2019-03-25T04:57:07.311Z,17.60
2019-03-25T04:59:35.810Z,17.57
2019-03-25T05:02:04.390Z,21.23
2019-03-25T05:04:33.269Z,18.62
2019-03-25T05:07:01.837Z,17.65
2019-03-25T05:09:30.343Z,18.55
2019-03-25T05:11:59.126Z,20.68
2019-03-25T05:14:27.833Z,21.33
2019-03-25T05:16:56.407Z,22.25
2019-03-25T05:19:25.291Z,22.22
2019-03-25T05:21:53.853Z,20.55
2019-03-25T05:24:22.525Z,21.97
2019-03-25T05:26:51.518Z,23.62
2019-03-25T05:29:20.169Z,22.07
2019-03-25T05:31:48.745Z,21.02
2019-03-25T05:34:17.306Z,20.62
2019-03-25T05:36:45.880Z,23.07
2019-03-25T05:39:14.631Z,23.02
2019-03-25T05:41:43.239Z,22.62
2019-03-25T05:44:11.743Z,21.65
2019-03-25T05:46:40.325Z,22.82
2019-03-25T05:49:08.941Z,22.27
2019-03-25T05:51:37.507Z,21.12
2019-03-25T05:54:06.080Z,24.72
2019-03-25T05:56:34.757Z,21.82
2019-03-25T05:59:03.422Z,22.32
2019-03-25T06:01:32.258Z,23.15
2019-03-25T06:04:00.809Z,23.20
2019-03-25T06:06:29.354Z,23.75
2019-03-25T06:08:58.000Z,21.45
2019-03-25T06:11:26.609Z,20.43
2019-03-25T06:13:55.218Z,22.10
2019-03-25T06:16:23.849Z,20.75
2019-03-25T06:18:52.523Z,19.65
2019-03-25T06:21:21.092Z,20.77
2019-03-25T06:23:49.615Z,20.35
2019-03-25T06:26:18.220Z,19.10
2019-03-25T06:28:46.864Z,20.05
2019-03-25T06:31:15.498Z,22.13
2019-03-25T06:33:44.018Z,22.35
2019-03-25T06:36:12.589Z,20.08
2019-03-25T06:38:41.423Z,23.00
2019-03-25T06:41:10.047Z,23.98
2019-03-25T06:43:38.681Z,24.05
2019-03-25T06:46:07.375Z,21.68
2019-03-25T06:48:35.881Z,22.50
2019-03-25T06:51:04.523Z,21.10
2019-03-25T06:53:33.239Z,23.30
2019-03-25T06:56:01.828Z,20.92
2019-03-25T06:58:30.316Z,21.77
2019-03-25T07:00:59.043Z,21.87
2019-03-25T07:03:29.782Z,21.87
2019-03-25T07:05:57.977Z,22.85
2019-03-25T07:08:26.529Z,20.23
2019-03-25T07:10:55.272Z,21.40
2019-03-25T07:13:24.603Z,19.65
2019-03-25T07:15:53.282Z,21.07
2019-03-25T07:18:21.855Z,24.45
2019-03-25T07:20:50.497Z,20.85
2019-03-25T07:23:19.108Z,22.37
2019-03-25T07:25:47.674Z,21.75
2019-03-25T07:28:16.318Z,18.57
2019-03-25T07:30:44.918Z,19.90
2019-03-25T07:33:13.493Z,18.75
2019-03-25T07:35:42.066Z,18.07
2019-03-25T07:38:10.878Z,18.77
2019-03-25T07:40:39.451Z,20.00
2019-03-25T07:43:07.991Z,19.17
2019-03-25T07:45:36.679Z,18.80
2019-03-25T07:48:05.329Z,19.30
2019-03-25T07:50:33.948Z,18.50
2019-03-25T07:53:02.480Z,18.80
2019-03-25T07:55:31.046Z,18.25
2019-03-25T07:57:59.619Z,19.00
2019-03-25T08:00:28.436Z,18.92
2019-03-25T08:02:57.038Z,19.27
2019-03-25T08:05:25.616Z,19.25
2019-03-25T08:07:54.385Z,19.48
2019-03-25T08:10:33.576Z,19.15
2019-03-25T08:13:02.538Z,18.27
2019-03-25T08:15:31.206Z,15.72
2019-03-25T08:18:00.084Z,17.57
2019-03-25T08:20:29.668Z,19.95
2019-03-25T08:22:58.314Z,19.48
2019-03-25T08:25:26.947Z,18.92
2019-03-25T08:28:00.127Z,19.00
2019-03-25T08:30:25.925Z,17.37
2019-03-25T08:32:54.567Z,17.20
2019-03-25T08:35:23.165Z,14.95
2019-03-25T08:37:51.754Z,14.13
2019-03-25T08:40:20.497Z,16.35
2019-03-25T08:42:49.097Z,14.73
2019-03-25T08:45:17.729Z,14.43
2019-03-25T08:47:46.372Z,15.15
2019-03-25T08:50:15.246Z,16.12
2019-03-25T08:52:43.826Z,16.85
2019-03-25T08:55:12.869Z,16.35
2019-03-25T08:57:41.578Z,15.72
2019-03-25T09:00:11.700Z,17.25
2019-03-25T09:02:40.276Z,16.42
2019-03-25T09:05:09.740Z,14.73
2019-03-25T09:07:38.373Z,13.68
2019-03-25T09:10:08.312Z,15.23
2019-03-25T09:12:37.120Z,15.15
2019-03-25T09:15:08.561Z,16.52
2019-03-25T09:17:37.270Z,14.85
2019-03-25T09:20:08.245Z,15.55
2019-03-25T09:22:36.957Z,16.25
2019-03-25T09:25:07.601Z,15.93
2019-03-25T09:27:36.481Z,14.45
2019-03-25T09:30:07.493Z,15.43
2019-03-25T09:32:36.248Z,14.65
2019-03-25T09:35:07.221Z,14.58
2019-03-25T09:37:35.720Z,14.83
2019-03-25T09:40:08.743Z,14.28
2019-03-25T09:42:37.413Z,15.00
2019-03-25T09:45:08.421Z,13.50
2019-03-25T09:47:37.935Z,14.45
2019-03-25T09:50:08.982Z,14.28
2019-03-25T09:52:38.731Z,13.90
2019-03-25T09:55:08.333Z,15.50
2019-03-25T09:57:37.143Z,15.98
2019-03-25T10:00:12.093Z,14.98
2019-03-25T10:02:40.775Z,14.23
2019-03-25T10:05:09.974Z,14.47
2019-03-25T10:07:38.622Z,14.40
2019-03-25T10:10:08.398Z,14.30
2019-03-25T10:12:37.155Z,14.38
2019-03-25T10:15:08.505Z,13.55
2019-03-25T10:17:37.181Z,14.80
2019-03-25T10:20:07.113Z,14.30
2019-03-25T10:22:35.621Z,13.95
2019-03-25T10:25:06.562Z,13.90
2019-03-25T10:27:35.206Z,13.98
2019-03-25T10:30:05.464Z,13.95
2019-03-25T10:32:34.024Z,13.32
2019-03-25T10:35:02.612Z,13.90
2019-03-25T10:37:31.181Z,12.85
2019-03-25T10:39:59.798Z,13.45
2019-03-25T10:42:28.447Z,14.07
2019-03-25T10:44:57.006Z,13.18
2019-03-25T10:47:25.556Z,13.83
2019-03-25T10:49:54.120Z,13.05
2019-03-25T10:52:22.765Z,12.75
2019-03-25T10:54:51.869Z,12.50
2019-03-25T10:57:20.574Z,13.80
2019-03-25T10:59:49.155Z,13.93
2019-03-25T11:02:18.062Z,13.50
2019-03-25T11:04:46.642Z,12.85
2019-03-25T11:07:15.238Z,10.50
2019-03-25T11:09:43.924Z,12.40
2019-03-25T11:12:12.669Z,12.28
2019-03-25T11:14:41.442Z,12.78
2019-03-25T11:17:10.060Z,11.33
2019-03-25T11:19:38.702Z,11.68
2019-03-25T11:22:07.343Z,11.43
2019-03-25T11:24:36.256Z,9.80
2019-03-25T11:27:04.891Z,9.93
2019-03-25T11:29:33.536Z,10.05
2019-03-25T11:32:02.227Z,10.03
2019-03-25T11:34:30.803Z,9.53
2019-03-25T11:36:59.320Z,9.55
2019-03-25T11:39:27.985Z,9.80
2019-03-25T11:41:56.625Z,9.45
2019-03-25T11:44:25.196Z,8.75
2019-03-25T11:46:53.802Z,10.03
2019-03-25T11:49:22.434Z,9.38
2019-03-25T11:51:51.070Z,9.75
2019-03-25T11:54:19.678Z,8.78
2019-03-25T11:56:48.296Z,8.15
2019-03-25T11:59:18.897Z,7.62
2019-03-25T12:01:47.439Z,8.55
2019-03-25T12:04:16.012Z,7.87
2019-03-25T12:06:44.653Z,7.78
2019-03-25T12:09:13.327Z,8.15
2019-03-25T12:11:41.937Z,8.55
2019-03-25T12:14:10.506Z,7.75
2019-03-25T12:16:39.190Z,7.53
2019-03-25T12:19:07.753Z,7.58
2019-03-25T12:21:36.243Z,7.12
2019-03-25T12:24:05.116Z,6.97
2019-03-25T12:26:33.759Z,7.10
2019-03-25T12:29:02.473Z,8.00
2019-03-25T12:31:31.159Z,7.17
2019-03-25T12:33:59.864Z,7.05
2019-03-25T12:36:28.419Z,6.53
2019-03-25T12:38:57.890Z,6.30
2019-03-25T12:41:26.520Z,5.70
2019-03-25T12:43:55.071Z,6.08
2019-03-25T12:46:23.904Z,6.03
2019-03-25T12:48:52.453Z,5.05
2019-03-25T12:51:21.076Z,5.83
2019-03-25T12:53:49.678Z,4.95
2019-03-25T12:56:18.184Z,5.65
2019-03-25T12:58:46.748Z,5.30
2019-03-25T13:01:15.424Z,5.90
2019-03-25T13:03:44.049Z,5.17
2019-03-25T13:06:12.620Z,6.90
2019-03-25T13:08:41.236Z,7.08
2019-03-25T13:11:09.869Z,5.62
2019-03-25T13:13:38.433Z,6.10
2019-03-25T13:16:07.100Z,5.55
2019-03-25T13:18:35.659Z,5.78
2019-03-25T13:21:04.293Z,5.45
2019-03-25T13:23:32.888Z,5.15
2019-03-25T13:26:01.526Z,5.25
2019-03-25T13:28:30.095Z,5.72
2019-03-25T13:30:58.775Z,5.65
2019-03-25T13:33:29.393Z,5.50
2019-03-25T13:35:57.700Z,5.65
2019-03-25T13:38:26.981Z,4.90
2019-03-25T13:40:55.474Z,5.40
2019-03-25T13:43:24.047Z,5.55
2019-03-25T13:45:52.738Z,5.70
2019-03-25T13:48:21.311Z,6.78
2019-03-25T13:50:49.808Z,5.25
2019-03-25T13:53:18.597Z,5.42
2019-03-25T13:55:47.230Z,6.47
2019-03-25T13:58:15.804Z,5.90
2019-03-25T14:00:44.657Z,5.50
2019-03-25T14:03:13.231Z,5.33
2019-03-25T14:05:41.734Z,4.70
2019-03-25T14:08:10.328Z,4.25
2019-03-25T14:10:39.063Z,5.00
2019-03-25T14:13:07.693Z,4.95
2019-03-25T14:15:36.282Z,4.40
2019-03-25T14:18:05.215Z,4.67
2019-03-25T14:20:33.849Z,4.55
2019-03-25T14:23:02.468Z,5.37
2019-03-25T14:25:30.958Z,5.20
2019-03-25T14:27:59.534Z,4.20
2019-03-25T14:30:28.273Z,4.90
2019-03-25T14:32:56.840Z,5.67
2019-03-25T14:35:25.416Z,4.70
2019-03-25T14:37:54.331Z,4.67
2019-03-25T14:40:22.895Z,3.98
2019-03-25T14:42:51.461Z,2.95
2019-03-25T14:45:26.274Z,3.75
2019-03-25T14:47:50.675Z,3.42
2019-03-25T14:50:19.506Z,3.17
2019-03-25T14:52:48.254Z,3.22
2019-03-25T14:55:16.895Z,4.12
2019-03-25T14:57:45.455Z,3.37
2019-03-25T15:00:24.446Z,3.12
2019-03-25T15:02:44.805Z,4.08
2019-03-25T15:05:13.621Z,3.30
2019-03-25T15:07:43.145Z,4.30
2019-03-25T15:10:12.182Z,4.20
2019-03-25T15:12:40.746Z,3.40
2019-03-25T15:15:09.883Z,2.70
2019-03-25T15:17:38.459Z,3.27
2019-03-25T15:20:10.041Z,3.62
2019-03-25T15:22:38.948Z,3.67
2019-03-25T15:25:09.680Z,3.87
2019-03-25T15:27:38.309Z,3.35
2019-03-25T15:30:10.113Z,3.05
2019-03-25T15:32:38.803Z,2.95
2019-03-25T15:35:08.396Z,3.47
2019-03-25T15:37:36.989Z,3.87
2019-03-25T15:40:08.565Z,3.98
2019-03-25T15:42:37.247Z,4.85
2019-03-25T15:45:07.485Z,4.92
2019-03-25T15:47:36.157Z,4.72
2019-03-25T15:50:07.744Z,5.00
2019-03-25T15:52:36.375Z,4.92
2019-03-25T15:55:05.808Z,5.15
2019-03-25T15:57:34.488Z,3.98
2019-03-25T16:00:03.324Z,4.45
2019-03-25T16:02:31.888Z,4.70
2019-03-25T16:05:00.566Z,5.37
2019-03-25T16:07:29.142Z,4.83
2019-03-25T16:09:57.715Z,5.53
2019-03-25T16:12:26.326Z,5.87
2019-03-25T16:14:54.891Z,5.45
2019-03-25T16:17:23.457Z,6.33
2019-03-25T16:19:52.011Z,6.35
2019-03-25T16:22:20.570Z,6.40
2019-03-25T16:24:49.209Z,5.42
2019-03-25T16:27:17.816Z,6.05
2019-03-25T16:29:46.321Z,6.55
2019-03-25T16:32:14.962Z,6.47
2019-03-25T16:34:43.634Z,7.22
2019-03-25T16:37:12.293Z,6.70
2019-03-25T16:39:40.806Z,7.25
2019-03-25T16:42:09.399Z,6.22
2019-03-25T16:44:38.030Z,6.83
2019-03-25T16:47:06.606Z,6.00
2019-03-25T16:49:35.136Z,7.05
2019-03-25T16:52:03.774Z,6.30
2019-03-25T16:54:32.420Z,6.72
2019-03-25T16:57:01.099Z,6.92
2019-03-25T16:59:29.597Z,6.78
2019-03-25T17:01:58.161Z,6.40
2019-03-25T17:04:26.838Z,7.15
2019-03-25T17:06:55.500Z,6.80
2019-03-25T17:09:24.021Z,6.65
2019-03-25T17:11:52.802Z,6.85
2019-03-25T17:14:21.374Z,6.45
2019-03-25T17:16:49.945Z,7.15
2019-03-25T17:19:18.624Z,7.97
2019-03-25T17:21:57.390Z,8.15
2019-03-25T17:24:17.491Z,8.15
2019-03-25T17:26:46.157Z,10.65
2019-03-25T17:29:14.797Z,11.38
2019-03-25T17:31:43.363Z,9.60
2019-03-25T17:34:11.948Z,8.75
2019-03-25T17:36:40.544Z,9.45
2019-03-25T17:39:09.839Z,8.58
2019-03-25T17:41:38.455Z,9.53
2019-03-25T17:44:06.950Z,8.15
2019-03-25T17:46:35.524Z,8.28
2019-03-25T17:49:04.197Z,9.55
2019-03-25T17:51:32.930Z,8.98
2019-03-25T17:54:02.057Z,9.08
2019-03-25T17:56:30.731Z,9.83
2019-03-25T17:58:59.401Z,9.45
2019-03-25T18:01:32.591Z,9.13
2019-03-25T18:04:00.096Z,10.32
2019-03-25T18:06:28.792Z,10.35
2019-03-25T18:08:57.453Z,9.88
2019-03-25T18:11:26.155Z,10.18
2019-03-25T18:13:54.782Z,10.72
2019-03-25T18:16:23.425Z,9.98
2019-03-25T18:18:52.102Z,10.68
2019-03-25T18:21:20.776Z,9.95
2019-03-25T18:23:49.413Z,10.68
2019-03-25T18:26:18.167Z,10.25
2019-03-25T18:28:46.662Z,11.08
2019-03-25T18:31:15.228Z,11.40
2019-03-25T18:33:43.999Z,11.00
2019-03-25T18:36:12.681Z,11.80
2019-03-25T18:38:41.358Z,10.55
2019-03-25T18:41:10.511Z,11.05
2019-03-25T18:43:39.085Z,10.45
2019-03-25T18:46:07.726Z,11.20
2019-03-25T18:48:36.657Z,11.57
2019-03-25T18:51:05.414Z,12.85
2019-03-25T18:53:34.063Z,11.12
2019-03-25T18:56:02.928Z,11.75
2019-03-25T18:58:31.558Z,13.08
2019-03-25T19:01:00.132Z,11.90
2019-03-25T19:03:28.876Z,12.35
2019-03-25T19:05:57.511Z,10.50
2019-03-25T19:08:26.146Z,10.93
2019-03-25T19:10:54.751Z,11.20
2019-03-25T19:13:23.250Z,10.95
2019-03-25T19:15:51.822Z,13.83
2019-03-25T19:18:20.657Z,16.93
2019-03-25T19:20:49.292Z,21.30
2019-03-25T19:23:17.934Z,18.02
2019-03-25T19:25:46.874Z,16.95
2019-03-25T19:28:15.492Z,17.10
2019-03-25T19:30:44.064Z,16.55
2019-03-25T19:33:12.620Z,16.90
2019-03-25T19:35:41.254Z,15.95
2019-03-25T19:38:09.890Z,15.98
2019-03-25T19:40:38.511Z,15.40
2019-03-25T19:43:07.081Z,13.90
2019-03-25T19:45:35.651Z,12.10
2019-03-25T19:48:05.009Z,13.72
2019-03-25T19:50:33.758Z,13.58
2019-03-25T19:53:02.323Z,15.00
2019-03-25T19:55:31.045Z,16.37
2019-03-25T19:57:59.622Z,15.85
2019-03-25T20:00:31.179Z,16.27
2019-03-25T20:02:59.854Z,15.28
2019-03-25T20:05:28.509Z,14.70
2019-03-25T20:07:57.160Z,13.30
2019-03-25T20:10:31.242Z,12.98
2019-03-25T20:13:00.903Z,12.55
2019-03-25T20:15:32.610Z,12.95
2019-03-25T20:17:59.906Z,12.70
2019-03-25T20:20:28.463Z,11.65
2019-03-25T20:22:57.164Z,11.48
2019-03-25T20:25:25.953Z,11.33
2019-03-25T20:27:54.569Z,12.00
2019-03-25T20:30:23.372Z,11.30
2019-03-25T20:32:51.967Z,11.53
2019-03-25T20:35:20.551Z,10.70
2019-03-25T20:37:49.190Z,11.15
2019-03-25T20:40:18.005Z,10.72
2019-03-25T20:42:46.646Z,10.58
2019-03-25T20:45:18.228Z,10.25
2019-03-25T20:47:45.922Z,9.45
2019-03-25T20:50:14.720Z,9.98
2019-03-25T20:52:43.497Z,9.88
2019-03-25T20:55:13.651Z,9.73
2019-03-25T20:57:42.318Z,10.10
2019-03-25T21:00:13.365Z,10.50
2019-03-25T21:02:45.225Z,10.23
2019-03-25T21:05:12.361Z,9.70
2019-03-25T21:07:41.063Z,9.55
2019-03-25T21:10:09.678Z,8.85
2019-03-25T21:12:38.719Z,8.75
2019-03-25T21:15:08.812Z,8.78
2019-03-25T21:17:37.414Z,8.78
2019-03-25T21:20:07.744Z,8.33
2019-03-25T21:22:36.555Z,8.58
2019-03-25T21:25:07.214Z,9.10
2019-03-25T21:27:35.761Z,8.63
2019-03-25T21:30:05.738Z,7.22
2019-03-25T21:32:34.468Z,8.48
2019-03-25T21:35:03.155Z,8.58
2019-03-25T21:37:31.985Z,8.20
2019-03-25T21:40:00.542Z,8.85
2019-03-25T21:42:29.458Z,8.80
2019-03-25T21:44:58.190Z,9.38
2019-03-25T21:47:26.970Z,9.05
2019-03-25T21:49:55.611Z,8.40
2019-03-25T21:52:24.282Z,9.43
2019-03-25T21:54:52.998Z,8.88
2019-03-25T21:57:21.483Z,8.18
2019-03-25T21:59:50.140Z,8.60
2019-03-25T22:02:18.764Z,8.53
2019-03-25T22:04:47.329Z,8.20
2019-03-25T22:07:16.067Z,8.10
2019-03-25T22:09:44.713Z,9.00
2019-03-25T22:12:13.340Z,9.53
2019-03-25T22:14:41.959Z,9.83
2019-03-25T22:17:10.467Z,10.10
2019-03-25T22:19:39.111Z,10.20
2019-03-25T22:22:08.291Z,10.38
2019-03-25T22:24:36.849Z,10.40
2019-03-25T22:27:05.487Z,15.23
2019-03-25T22:29:34.139Z,16.55
2019-03-25T22:32:02.852Z,17.37
2019-03-25T22:34:31.401Z,18.35
2019-03-25T22:37:00.082Z,17.02
2019-03-25T22:39:28.650Z,15.72
2019-03-25T22:41:57.147Z,17.57
2019-03-25T22:44:25.751Z,16.87
2019-03-25T22:46:54.395Z,16.85
2019-03-25T22:49:22.967Z,16.97
2019-03-25T22:51:51.667Z,16.77
2019-03-25T22:54:20.303Z,17.12
2019-03-25T22:56:49.076Z,16.75
2019-03-25T22:59:17.959Z,16.40
2019-03-25T23:01:46.607Z,16.25
2019-03-25T23:04:15.192Z,15.65
2019-03-25T23:06:43.851Z,14.53
2019-03-25T23:09:12.459Z,14.83
2019-03-25T23:11:41.091Z,15.35
2019-03-25T23:14:09.695Z,14.93
2019-03-25T23:16:38.191Z,14.85
2019-03-25T23:19:06.895Z,14.38
2019-03-25T23:21:35.587Z,15.50
2019-03-25T23:24:04.983Z,15.28
2019-03-25T23:26:33.551Z,15.48
2019-03-25T23:29:02.149Z,15.35
2019-03-25T23:31:30.788Z,14.03
2019-03-25T23:33:59.358Z,12.95
2019-03-25T23:36:28.178Z,13.32
2019-03-25T23:38:56.815Z,14.60
2019-03-25T23:41:25.456Z,13.72
2019-03-25T23:43:54.067Z,13.25
2019-03-25T23:46:22.564Z,12.82
2019-03-25T23:48:51.141Z,15.40
2019-03-25T23:51:19.944Z,14.50
2019-03-25T23:53:48.513Z,13.08
2019-03-25T23:56:18.913Z,14.85
2019-03-25T23:58:47.673Z,15.10
